sensor_id;sensor_type;location;lat;lon;timestamp;P1;durP1;ratioP1;P2;durP2;ratioP2
43891;SDS011;29555;45.350;5.578;2022-12-07T00:01:22;167.80;;;66.75;;
43891;SDS011;29555;45.350;5.578;2022-12-07T00:03:51;70.43;;;31.83;;
43891;SDS011;29555;45.350;5.578;2022-12-07T00:06:17;113.93;;;49.92;;
43891;SDS011;29555;45.350;5.578;2022-12-07T00:08:44;62.08;;;29.45;;
43891;SDS011;29555;45.350;5.578;2022-12-07T00:11:11;61.47;;;26.98;;
43891;SDS011;29555;45.350;5.578;2022-12-07T00:13:40;32.05;;;17.20;;
43891;SDS011;29555;45.350;5.578;2022-12-07T00:16:11;20.50;;;10.80;;
43891;SDS011;29555;45.350;5.578;2022-12-07T00:18:38;29.70;;;13.10;;
43891;SDS011;29555;45.350;5.578;2022-12-07T00:21:05;20.15;;;12.40;;
43891;SDS011;29555;45.350;5.578;2022-12-07T00:23:32;15.07;;;9.80;;
43891;SDS011;29555;45.350;5.578;2022-12-07T00:26:08;18.67;;;9.70;;
43891;SDS011;29555;45.350;5.578;2022-12-07T00:28:35;13.07;;;8.60;;
43891;SDS011;29555;45.350;5.578;2022-12-07T00:31:08;20.63;;;11.32;;
43891;SDS011;29555;45.350;5.578;2022-12-07T00:33:35;68.25;;;32.78;;
43891;SDS011;29555;45.350;5.578;2022-12-07T00:36:01;25.98;;;15.82;;
43891;SDS011;29555;45.350;5.578;2022-12-07T00:38:29;24.30;;;10.98;;
43891;SDS011;29555;45.350;5.578;2022-12-07T00:40:59;26.85;;;13.63;;
43891;SDS011;29555;45.350;5.578;2022-12-07T00:43:26;20.30;;;10.73;;
43891;SDS011;29555;45.350;5.578;2022-12-07T00:45:52;24.13;;;14.88;;
43891;SDS011;29555;45.350;5.578;2022-12-07T00:48:18;69.32;;;32.88;;
43891;SDS011;29555;45.350;5.578;2022-12-07T00:50:43;37.85;;;20.08;;
43891;SDS011;29555;45.350;5.578;2022-12-07T00:53:09;35.97;;;18.98;;
43891;SDS011;29555;45.350;5.578;2022-12-07T00:55:35;29.90;;;16.20;;
43891;SDS011;29555;45.350;5.578;2022-12-07T00:58:00;23.38;;;11.95;;
43891;SDS011;29555;45.350;5.578;2022-12-07T01:00:26;158.43;;;65.25;;
43891;SDS011;29555;45.350;5.578;2022-12-07T01:02:51;69.47;;;31.52;;
43891;SDS011;29555;45.350;5.578;2022-12-07T01:05:16;30.38;;;17.45;;
43891;SDS011;29555;45.350;5.578;2022-12-07T01:07:42;44.97;;;21.42;;
43891;SDS011;29555;45.350;5.578;2022-12-07T01:10:07;25.70;;;12.88;;
43891;SDS011;29555;45.350;5.578;2022-12-07T01:12:33;16.80;;;9.30;;
43891;SDS011;29555;45.350;5.578;2022-12-07T01:14:58;15.73;;;9.05;;
43891;SDS011;29555;45.350;5.578;2022-12-07T01:17:24;20.17;;;9.95;;
43891;SDS011;29555;45.350;5.578;2022-12-07T01:19:49;15.25;;;9.23;;
43891;SDS011;29555;45.350;5.578;2022-12-07T01:22:14;19.58;;;9.55;;
43891;SDS011;29555;45.350;5.578;2022-12-07T01:24:40;14.55;;;8.80;;
43891;SDS011;29555;45.350;5.578;2022-12-07T01:27:05;18.33;;;9.25;;
43891;SDS011;29555;45.350;5.578;2022-12-07T01:29:30;20.25;;;10.50;;
43891;SDS011;29555;45.350;5.578;2022-12-07T01:31:56;12.70;;;8.68;;
43891;SDS011;29555;45.350;5.578;2022-12-07T01:34:21;16.92;;;9.23;;
43891;SDS011;29555;45.350;5.578;2022-12-07T01:36:47;18.40;;;10.05;;
43891;SDS011;29555;45.350;5.578;2022-12-07T01:39:12;20.25;;;9.50;;
43891;SDS011;29555;45.350;5.578;2022-12-07T01:41:38;20.65;;;10.05;;
43891;SDS011;29555;45.350;5.578;2022-12-07T01:44:10;20.73;;;10.43;;
43891;SDS011;29555;45.350;5.578;2022-12-07T01:46:43;16.77;;;10.25;;
43891;SDS011;29555;45.350;5.578;2022-12-07T01:49:16;19.17;;;9.23;;
43891;SDS011;29555;45.350;5.578;2022-12-07T01:51:49;15.63;;;9.73;;
43891;SDS011;29555;45.350;5.578;2022-12-07T01:54:17;14.80;;;10.07;;
43891;SDS011;29555;45.350;5.578;2022-12-07T01:56:47;15.73;;;8.85;;
43891;SDS011;29555;45.350;5.578;2022-12-07T01:59:16;21.83;;;9.98;;
43891;SDS011;29555;45.350;5.578;2022-12-07T02:01:43;16.65;;;8.93;;
43891;SDS011;29555;45.350;5.578;2022-12-07T02:04:09;17.90;;;9.52;;
43891;SDS011;29555;45.350;5.578;2022-12-07T02:06:35;18.15;;;10.32;;
43891;SDS011;29555;45.350;5.578;2022-12-07T02:09:01;16.98;;;9.90;;
43891;SDS011;29555;45.350;5.578;2022-12-07T02:11:27;18.50;;;9.18;;
43891;SDS011;29555;45.350;5.578;2022-12-07T02:13:52;16.10;;;9.88;;
43891;SDS011;29555;45.350;5.578;2022-12-07T02:16:34;14.93;;;8.85;;
43891;SDS011;29555;45.350;5.578;2022-12-07T02:22:13;16.45;;;9.45;;
43891;SDS011;29555;45.350;5.578;2022-12-07T02:27:31;22.30;;;13.20;;
43891;SDS011;29555;45.350;5.578;2022-12-07T02:30:08;18.23;;;9.20;;
43891;SDS011;29555;45.350;5.578;2022-12-07T02:35:24;23.75;;;10.88;;
43891;SDS011;29555;45.350;5.578;2022-12-07T02:37:53;17.13;;;10.50;;
43891;SDS011;29555;45.350;5.578;2022-12-07T02:40:28;19.35;;;9.45;;
43891;SDS011;29555;45.350;5.578;2022-12-07T02:43:10;21.10;;;10.38;;
43891;SDS011;29555;45.350;5.578;2022-12-07T02:45:39;14.32;;;9.75;;
43891;SDS011;29555;45.350;5.578;2022-12-07T02:48:07;25.13;;;13.32;;
43891;SDS011;29555;45.350;5.578;2022-12-07T02:50:33;30.33;;;14.20;;
43891;SDS011;29555;45.350;5.578;2022-12-07T02:52:59;21.45;;;12.82;;
43891;SDS011;29555;45.350;5.578;2022-12-07T02:55:26;27.90;;;13.13;;
43891;SDS011;29555;45.350;5.578;2022-12-07T02:58:02;18.30;;;10.13;;
43891;SDS011;29555;45.350;5.578;2022-12-07T03:03:52;18.42;;;9.65;;
43891;SDS011;29555;45.350;5.578;2022-12-07T03:06:28;15.25;;;8.18;;
43891;SDS011;29555;45.350;5.578;2022-12-07T03:11:50;16.75;;;10.02;;
43891;SDS011;29555;45.350;5.578;2022-12-07T03:14:24;15.02;;;8.57;;
43891;SDS011;29555;45.350;5.578;2022-12-07T03:17:03;18.10;;;8.90;;
43891;SDS011;29555;45.350;5.578;2022-12-07T03:19:32;14.93;;;8.43;;
43891;SDS011;29555;45.350;5.578;2022-12-07T03:22:06;14.10;;;8.55;;
43891;SDS011;29555;45.350;5.578;2022-12-07T03:24:36;14.93;;;6.68;;
43891;SDS011;29555;45.350;5.578;2022-12-07T03:27:09;24.23;;;9.13;;
43891;SDS011;29555;45.350;5.578;2022-12-07T03:29:38;11.88;;;7.53;;
43891;SDS011;29555;45.350;5.578;2022-12-07T03:32:29;18.10;;;8.73;;
43891;SDS011;29555;45.350;5.578;2022-12-07T03:35:34;11.88;;;7.55;;
43891;SDS011;29555;45.350;5.578;2022-12-07T03:40:58;16.95;;;7.63;;
43891;SDS011;29555;45.350;5.578;2022-12-07T03:43:28;14.80;;;8.13;;
43891;SDS011;29555;45.350;5.578;2022-12-07T03:53:54;15.35;;;7.68;;
43891;SDS011;29555;45.350;5.578;2022-12-07T03:56:27;12.73;;;6.53;;
43891;SDS011;29555;45.350;5.578;2022-12-07T03:58:54;10.30;;;6.47;;
43891;SDS011;29555;45.350;5.578;2022-12-07T04:01:19;9.32;;;6.55;;
43891;SDS011;29555;45.350;5.578;2022-12-07T04:03:45;20.92;;;6.75;;
43891;SDS011;29555;45.350;5.578;2022-12-07T04:06:10;13.57;;;6.93;;
43891;SDS011;29555;45.350;5.578;2022-12-07T04:08:36;12.60;;;7.00;;
43891;SDS011;29555;45.350;5.578;2022-12-07T04:11:01;10.35;;;5.85;;
43891;SDS011;29555;45.350;5.578;2022-12-07T04:13:27;12.88;;;5.90;;
43891;SDS011;29555;45.350;5.578;2022-12-07T04:15:52;10.18;;;5.95;;
43891;SDS011;29555;45.350;5.578;2022-12-07T04:18:17;17.45;;;6.72;;
43891;SDS011;29555;45.350;5.578;2022-12-07T04:20:43;9.30;;;7.18;;
43891;SDS011;29555;45.350;5.578;2022-12-07T04:23:08;11.57;;;6.93;;
43891;SDS011;29555;45.350;5.578;2022-12-07T04:25:34;12.77;;;7.93;;
43891;SDS011;29555;45.350;5.578;2022-12-07T04:27:59;13.73;;;8.02;;
43891;SDS011;29555;45.350;5.578;2022-12-07T04:30:24;10.52;;;7.40;;
43891;SDS011;29555;45.350;5.578;2022-12-07T04:32:50;14.45;;;7.95;;
43891;SDS011;29555;45.350;5.578;2022-12-07T04:35:15;20.83;;;7.80;;
43891;SDS011;29555;45.350;5.578;2022-12-07T04:37:41;10.70;;;7.03;;
43891;SDS011;29555;45.350;5.578;2022-12-07T04:40:10;10.85;;;6.93;;
43891;SDS011;29555;45.350;5.578;2022-12-07T04:42:36;13.88;;;7.95;;
43891;SDS011;29555;45.350;5.578;2022-12-07T04:45:02;13.13;;;7.22;;
43891;SDS011;29555;45.350;5.578;2022-12-07T04:47:28;9.82;;;6.95;;
43891;SDS011;29555;45.350;5.578;2022-12-07T04:49:53;13.75;;;7.13;;
43891;SDS011;29555;45.350;5.578;2022-12-07T04:52:19;13.52;;;7.70;;
43891;SDS011;29555;45.350;5.578;2022-12-07T04:54:44;13.35;;;6.80;;
43891;SDS011;29555;45.350;5.578;2022-12-07T04:57:10;16.63;;;7.70;;
43891;SDS011;29555;45.350;5.578;2022-12-07T04:59:35;10.68;;;7.50;;
43891;SDS011;29555;45.350;5.578;2022-12-07T05:02:00;11.48;;;7.38;;
43891;SDS011;29555;45.350;5.578;2022-12-07T05:04:26;15.05;;;7.20;;
43891;SDS011;29555;45.350;5.578;2022-12-07T05:06:51;17.02;;;8.25;;
43891;SDS011;29555;45.350;5.578;2022-12-07T05:09:16;10.90;;;5.72;;
43891;SDS011;29555;45.350;5.578;2022-12-07T05:11:42;13.93;;;8.18;;
43891;SDS011;29555;45.350;5.578;2022-12-07T05:14:18;13.70;;;6.60;;
43891;SDS011;29555;45.350;5.578;2022-12-07T05:16:45;14.65;;;7.05;;
43891;SDS011;29555;45.350;5.578;2022-12-07T05:19:12;16.08;;;9.25;;
43891;SDS011;29555;45.350;5.578;2022-12-07T05:21:38;16.55;;;8.95;;
43891;SDS011;29555;45.350;5.578;2022-12-07T05:24:04;13.80;;;8.00;;
43891;SDS011;29555;45.350;5.578;2022-12-07T05:26:30;11.95;;;7.78;;
43891;SDS011;29555;45.350;5.578;2022-12-07T05:28:56;15.00;;;7.65;;
43891;SDS011;29555;45.350;5.578;2022-12-07T05:31:22;11.95;;;7.13;;
43891;SDS011;29555;45.350;5.578;2022-12-07T05:33:48;17.30;;;7.82;;
43891;SDS011;29555;45.350;5.578;2022-12-07T05:36:14;5.20;;;4.43;;
43891;SDS011;29555;45.350;5.578;2022-12-07T05:38:40;16.15;;;8.43;;
43891;SDS011;29555;45.350;5.578;2022-12-07T05:41:06;18.30;;;9.15;;
43891;SDS011;29555;45.350;5.578;2022-12-07T05:43:53;24.98;;;10.65;;
43891;SDS011;29555;45.350;5.578;2022-12-07T05:46:18;18.02;;;9.93;;
43891;SDS011;29555;45.350;5.578;2022-12-07T05:48:43;25.08;;;11.90;;
43891;SDS011;29555;45.350;5.578;2022-12-07T05:51:09;19.92;;;10.05;;
43891;SDS011;29555;45.350;5.578;2022-12-07T05:53:34;16.23;;;8.90;;
43891;SDS011;29555;45.350;5.578;2022-12-07T05:55:59;58.05;;;25.25;;
43891;SDS011;29555;45.350;5.578;2022-12-07T05:58:25;56.25;;;23.02;;
43891;SDS011;29555;45.350;5.578;2022-12-07T06:01:09;47.78;;;21.15;;
43891;SDS011;29555;45.350;5.578;2022-12-07T06:03:34;60.90;;;28.08;;
43891;SDS011;29555;45.350;5.578;2022-12-07T06:05:59;28.48;;;16.35;;
43891;SDS011;29555;45.350;5.578;2022-12-07T06:08:25;37.10;;;16.25;;
43891;SDS011;29555;45.350;5.578;2022-12-07T06:10:50;39.00;;;19.25;;
43891;SDS011;29555;45.350;5.578;2022-12-07T06:13:35;26.65;;;13.10;;
43891;SDS011;29555;45.350;5.578;2022-12-07T06:16:01;18.17;;;10.20;;
43891;SDS011;29555;45.350;5.578;2022-12-07T06:18:26;24.88;;;10.00;;
43891;SDS011;29555;45.350;5.578;2022-12-07T06:20:51;22.02;;;10.93;;
43891;SDS011;29555;45.350;5.578;2022-12-07T06:23:17;19.33;;;11.23;;
43891;SDS011;29555;45.350;5.578;2022-12-07T06:25:44;24.45;;;10.20;;
43891;SDS011;29555;45.350;5.578;2022-12-07T06:28:10;20.05;;;11.00;;
43891;SDS011;29555;45.350;5.578;2022-12-07T06:30:36;34.30;;;10.15;;
43891;SDS011;29555;45.350;5.578;2022-12-07T06:33:01;21.08;;;9.18;;
43891;SDS011;29555;45.350;5.578;2022-12-07T06:35:26;17.48;;;9.75;;
43891;SDS011;29555;45.350;5.578;2022-12-07T06:37:52;13.35;;;8.25;;
43891;SDS011;29555;45.350;5.578;2022-12-07T06:40:17;17.50;;;8.77;;
43891;SDS011;29555;45.350;5.578;2022-12-07T06:42:42;19.25;;;8.80;;
43891;SDS011;29555;45.350;5.578;2022-12-07T06:45:08;20.73;;;9.85;;
43891;SDS011;29555;45.350;5.578;2022-12-07T06:47:34;18.38;;;9.38;;
43891;SDS011;29555;45.350;5.578;2022-12-07T06:50:00;18.77;;;9.70;;
43891;SDS011;29555;45.350;5.578;2022-12-07T06:52:27;17.30;;;8.35;;
43891;SDS011;29555;45.350;5.578;2022-12-07T06:54:53;18.00;;;8.85;;
43891;SDS011;29555;45.350;5.578;2022-12-07T06:57:18;17.00;;;9.18;;
43891;SDS011;29555;45.350;5.578;2022-12-07T06:59:45;23.60;;;10.25;;
43891;SDS011;29555;45.350;5.578;2022-12-07T07:02:10;17.92;;;10.45;;
43891;SDS011;29555;45.350;5.578;2022-12-07T07:04:35;19.60;;;10.57;;
43891;SDS011;29555;45.350;5.578;2022-12-07T07:07:01;25.90;;;11.70;;
43891;SDS011;29555;45.350;5.578;2022-12-07T07:09:26;21.60;;;12.52;;
43891;SDS011;29555;45.350;5.578;2022-12-07T07:11:52;21.70;;;11.60;;
43891;SDS011;29555;45.350;5.578;2022-12-07T07:14:17;22.67;;;9.82;;
43891;SDS011;29555;45.350;5.578;2022-12-07T07:16:44;20.85;;;10.57;;
43891;SDS011;29555;45.350;5.578;2022-12-07T07:19:09;18.42;;;10.18;;
43891;SDS011;29555;45.350;5.578;2022-12-07T07:21:36;20.20;;;10.48;;
43891;SDS011;29555;45.350;5.578;2022-12-07T07:24:01;19.92;;;11.43;;
43891;SDS011;29555;45.350;5.578;2022-12-07T07:26:27;21.20;;;11.43;;
43891;SDS011;29555;45.350;5.578;2022-12-07T07:28:52;16.30;;;10.70;;
43891;SDS011;29555;45.350;5.578;2022-12-07T07:31:17;24.25;;;10.13;;
43891;SDS011;29555;45.350;5.578;2022-12-07T07:33:44;16.85;;;9.93;;
43891;SDS011;29555;45.350;5.578;2022-12-07T07:36:11;20.65;;;10.00;;
43891;SDS011;29555;45.350;5.578;2022-12-07T07:38:36;25.65;;;11.48;;
43891;SDS011;29555;45.350;5.578;2022-12-07T07:41:01;20.10;;;11.15;;
43891;SDS011;29555;45.350;5.578;2022-12-07T07:43:27;18.90;;;11.30;;
43891;SDS011;29555;45.350;5.578;2022-12-07T07:45:52;15.18;;;9.48;;
43891;SDS011;29555;45.350;5.578;2022-12-07T07:48:18;28.02;;;16.88;;
43891;SDS011;29555;45.350;5.578;2022-12-07T07:50:43;21.90;;;13.27;;
43891;SDS011;29555;45.350;5.578;2022-12-07T07:53:08;26.98;;;11.30;;
43891;SDS011;29555;45.350;5.578;2022-12-07T07:55:34;17.25;;;10.20;;
43891;SDS011;29555;45.350;5.578;2022-12-07T07:57:59;22.90;;;12.10;;
43891;SDS011;29555;45.350;5.578;2022-12-07T08:00:24;23.77;;;12.05;;
43891;SDS011;29555;45.350;5.578;2022-12-07T08:02:50;19.88;;;12.05;;
43891;SDS011;29555;45.350;5.578;2022-12-07T08:05:15;25.13;;;12.68;;
43891;SDS011;29555;45.350;5.578;2022-12-07T08:07:41;18.88;;;11.35;;
43891;SDS011;29555;45.350;5.578;2022-12-07T08:10:08;20.58;;;10.00;;
43891;SDS011;29555;45.350;5.578;2022-12-07T08:12:36;13.45;;;9.80;;
43891;SDS011;29555;45.350;5.578;2022-12-07T08:15:02;19.13;;;10.57;;
43891;SDS011;29555;45.350;5.578;2022-12-07T08:17:28;22.45;;;12.98;;
43891;SDS011;29555;45.350;5.578;2022-12-07T08:19:53;23.63;;;12.45;;
43891;SDS011;29555;45.350;5.578;2022-12-07T08:22:19;23.75;;;10.65;;
43891;SDS011;29555;45.350;5.578;2022-12-07T08:24:44;16.17;;;9.45;;
43891;SDS011;29555;45.350;5.578;2022-12-07T08:27:09;17.77;;;10.05;;
43891;SDS011;29555;45.350;5.578;2022-12-07T08:29:35;22.70;;;11.80;;
43891;SDS011;29555;45.350;5.578;2022-12-07T08:32:00;30.15;;;16.63;;
43891;SDS011;29555;45.350;5.578;2022-12-07T08:34:26;28.52;;;15.57;;
43891;SDS011;29555;45.350;5.578;2022-12-07T08:36:52;26.15;;;13.95;;
43891;SDS011;29555;45.350;5.578;2022-12-07T08:39:17;40.08;;;20.42;;
43891;SDS011;29555;45.350;5.578;2022-12-07T08:41:42;46.75;;;21.70;;
43891;SDS011;29555;45.350;5.578;2022-12-07T08:44:08;50.15;;;23.42;;
43891;SDS011;29555;45.350;5.578;2022-12-07T08:46:37;69.00;;;24.88;;
43891;SDS011;29555;45.350;5.578;2022-12-07T08:51:42;60.25;;;26.88;;
43891;SDS011;29555;45.350;5.578;2022-12-07T08:54:09;197.18;;;75.10;;
43891;SDS011;29555;45.350;5.578;2022-12-07T08:56:37;140.35;;;54.42;;
43891;SDS011;29555;45.350;5.578;2022-12-07T08:59:04;139.23;;;51.58;;
43891;SDS011;29555;45.350;5.578;2022-12-07T09:01:30;54.78;;;27.05;;
43891;SDS011;29555;45.350;5.578;2022-12-07T09:03:55;90.10;;;38.63;;
43891;SDS011;29555;45.350;5.578;2022-12-07T09:06:20;85.93;;;36.63;;
43891;SDS011;29555;45.350;5.578;2022-12-07T09:08:46;188.07;;;80.88;;
43891;SDS011;29555;45.350;5.578;2022-12-07T09:11:15;141.02;;;61.00;;
43891;SDS011;29555;45.350;5.578;2022-12-07T09:13:40;244.68;;;102.03;;
43891;SDS011;29555;45.350;5.578;2022-12-07T09:16:06;86.00;;;45.58;;
43891;SDS011;29555;45.350;5.578;2022-12-07T09:18:31;53.60;;;28.20;;
43891;SDS011;29555;45.350;5.578;2022-12-07T09:20:57;29.45;;;14.77;;
43891;SDS011;29555;45.350;5.578;2022-12-07T09:23:22;52.92;;;26.70;;
43891;SDS011;29555;45.350;5.578;2022-12-07T09:25:47;27.20;;;16.73;;
43891;SDS011;29555;45.350;5.578;2022-12-07T09:28:13;24.60;;;13.30;;
43891;SDS011;29555;45.350;5.578;2022-12-07T09:30:38;29.00;;;16.40;;
43891;SDS011;29555;45.350;5.578;2022-12-07T09:33:03;114.65;;;51.45;;
43891;SDS011;29555;45.350;5.578;2022-12-07T09:35:29;61.90;;;27.65;;
43891;SDS011;29555;45.350;5.578;2022-12-07T09:37:54;42.33;;;20.67;;
43891;SDS011;29555;45.350;5.578;2022-12-07T09:40:20;31.35;;;15.80;;
43891;SDS011;29555;45.350;5.578;2022-12-07T09:42:48;94.82;;;45.97;;
43891;SDS011;29555;45.350;5.578;2022-12-07T09:45:21;109.18;;;49.10;;
43891;SDS011;29555;45.350;5.578;2022-12-07T09:47:48;96.72;;;46.25;;
43891;SDS011;29555;45.350;5.578;2022-12-07T09:50:23;37.35;;;20.85;;
43891;SDS011;29555;45.350;5.578;2022-12-07T09:52:51;28.42;;;15.05;;
43891;SDS011;29555;45.350;5.578;2022-12-07T09:55:27;32.92;;;17.33;;
43891;SDS011;29555;45.350;5.578;2022-12-07T09:57:54;23.55;;;13.68;;
43891;SDS011;29555;45.350;5.578;2022-12-07T10:00:20;15.27;;;10.65;;
43891;SDS011;29555;45.350;5.578;2022-12-07T10:02:57;95.43;;;44.78;;
43891;SDS011;29555;45.350;5.578;2022-12-07T10:05:25;61.80;;;31.08;;
43891;SDS011;29555;45.350;5.578;2022-12-07T10:07:57;21.60;;;12.90;;
43891;SDS011;29555;45.350;5.578;2022-12-07T10:10:24;25.33;;;11.20;;
43891;SDS011;29555;45.350;5.578;2022-12-07T10:12:55;61.20;;;29.17;;
43891;SDS011;29555;45.350;5.578;2022-12-07T10:15:37;69.22;;;29.13;;
43891;SDS011;29555;45.350;5.578;2022-12-07T10:18:20;56.58;;;22.58;;
43891;SDS011;29555;45.350;5.578;2022-12-07T10:21:08;39.85;;;19.52;;
43891;SDS011;29555;45.350;5.578;2022-12-07T10:23:35;31.90;;;14.93;;
43891;SDS011;29555;45.350;5.578;2022-12-07T10:28:50;33.78;;;15.48;;
43891;SDS011;29555;45.350;5.578;2022-12-07T10:31:17;189.43;;;74.18;;
43891;SDS011;29555;45.350;5.578;2022-12-07T10:33:49;93.10;;;36.55;;
43891;SDS011;29555;45.350;5.578;2022-12-07T10:39:01;20.08;;;11.20;;
43891;SDS011;29555;45.350;5.578;2022-12-07T10:41:59;22.85;;;12.48;;
43891;SDS011;29555;45.350;5.578;2022-12-07T10:44:25;19.88;;;10.07;;
43891;SDS011;29555;45.350;5.578;2022-12-07T10:49:39;67.63;;;33.50;;
43891;SDS011;29555;45.350;5.578;2022-12-07T11:00:24;27.58;;;13.70;;
43891;SDS011;29555;45.350;5.578;2022-12-07T11:03:37;49.42;;;25.10;;
43891;SDS011;29555;45.350;5.578;2022-12-07T11:11:14;24.10;;;13.45;;
43891;SDS011;29555;45.350;5.578;2022-12-07T11:13:48;20.20;;;10.73;;
43891;SDS011;29555;45.350;5.578;2022-12-07T11:16:30;21.45;;;11.02;;
43891;SDS011;29555;45.350;5.578;2022-12-07T11:19:30;19.85;;;10.43;;
43891;SDS011;29555;45.350;5.578;2022-12-07T11:22:36;18.38;;;10.27;;
43891;SDS011;29555;45.350;5.578;2022-12-07T11:28:00;20.25;;;13.05;;
43891;SDS011;29555;45.350;5.578;2022-12-07T11:30:57;22.90;;;11.73;;
43891;SDS011;29555;45.350;5.578;2022-12-07T11:33:39;16.63;;;9.80;;
43891;SDS011;29555;45.350;5.578;2022-12-07T11:39:25;21.35;;;11.77;;
43891;SDS011;29555;45.350;5.578;2022-12-07T11:42:03;25.38;;;13.50;;
43891;SDS011;29555;45.350;5.578;2022-12-07T11:47:25;21.17;;;12.02;;
43891;SDS011;29555;45.350;5.578;2022-12-07T11:50:03;23.70;;;13.00;;
43891;SDS011;29555;45.350;5.578;2022-12-07T11:53:17;23.77;;;13.45;;
43891;SDS011;29555;45.350;5.578;2022-12-07T12:01:11;23.83;;;10.85;;
43891;SDS011;29555;45.350;5.578;2022-12-07T12:03:47;24.15;;;12.90;;
43891;SDS011;29555;45.350;5.578;2022-12-07T12:06:16;19.33;;;10.95;;
43891;SDS011;29555;45.350;5.578;2022-12-07T12:13:49;23.35;;;12.15;;
43891;SDS011;29555;45.350;5.578;2022-12-07T12:16:29;22.45;;;11.00;;
43891;SDS011;29555;45.350;5.578;2022-12-07T12:19:07;29.98;;;14.70;;
43891;SDS011;29555;45.350;5.578;2022-12-07T12:21:40;22.48;;;13.32;;
43891;SDS011;29555;45.350;5.578;2022-12-07T12:24:14;28.13;;;12.43;;
43891;SDS011;29555;45.350;5.578;2022-12-07T12:26:51;22.52;;;12.65;;
43891;SDS011;29555;45.350;5.578;2022-12-07T12:29:41;23.83;;;14.95;;
43891;SDS011;29555;45.350;5.578;2022-12-07T12:32:07;25.63;;;14.55;;
43891;SDS011;29555;45.350;5.578;2022-12-07T12:42:45;22.00;;;12.95;;
43891;SDS011;29555;45.350;5.578;2022-12-07T12:45:26;19.17;;;12.75;;
43891;SDS011;29555;45.350;5.578;2022-12-07T12:54:03;22.33;;;11.63;;
43891;SDS011;29555;45.350;5.578;2022-12-07T12:56:34;43.23;;;20.23;;
43891;SDS011;29555;45.350;5.578;2022-12-07T13:01:56;130.82;;;56.92;;
43891;SDS011;29555;45.350;5.578;2022-12-07T13:07:02;95.00;;;48.78;;
43891;SDS011;29555;45.350;5.578;2022-12-07T13:09:28;37.70;;;22.17;;
43891;SDS011;29555;45.350;5.578;2022-12-07T13:12:11;32.10;;;18.30;;
43891;SDS011;29555;45.350;5.578;2022-12-07T13:14:55;28.27;;;15.48;;
43891;SDS011;29555;45.350;5.578;2022-12-07T13:20:00;35.10;;;14.88;;
43891;SDS011;29555;45.350;5.578;2022-12-07T13:27:33;54.72;;;25.10;;
43891;SDS011;29555;45.350;5.578;2022-12-07T13:30:03;146.23;;;58.88;;
43891;SDS011;29555;45.350;5.578;2022-12-07T13:32:52;129.40;;;49.75;;
43891;SDS011;29555;45.350;5.578;2022-12-07T13:38:02;37.17;;;18.98;;
43891;SDS011;29555;45.350;5.578;2022-12-07T13:40:30;67.90;;;31.33;;
43891;SDS011;29555;45.350;5.578;2022-12-07T13:42:59;138.10;;;53.83;;
43891;SDS011;29555;45.350;5.578;2022-12-07T13:45:28;55.05;;;27.00;;
43891;SDS011;29555;45.350;5.578;2022-12-07T13:50:58;62.10;;;30.65;;
43891;SDS011;29555;45.350;5.578;2022-12-07T13:53:25;94.13;;;42.40;;
43891;SDS011;29555;45.350;5.578;2022-12-07T13:55:55;125.88;;;57.33;;
43891;SDS011;29555;45.350;5.578;2022-12-07T13:58:24;55.65;;;27.45;;
43891;SDS011;29555;45.350;5.578;2022-12-07T14:00:51;50.25;;;22.83;;
43891;SDS011;29555;45.350;5.578;2022-12-07T14:05:43;32.65;;;16.27;;
43891;SDS011;29555;45.350;5.578;2022-12-07T14:10:41;106.80;;;46.53;;
43891;SDS011;29555;45.350;5.578;2022-12-07T14:16:01;48.55;;;25.17;;
43891;SDS011;29555;45.350;5.578;2022-12-07T14:18:28;75.15;;;35.83;;
43891;SDS011;29555;45.350;5.578;2022-12-07T14:21:30;133.57;;;60.95;;
43891;SDS011;29555;45.350;5.578;2022-12-07T14:26:34;46.83;;;26.10;;
43891;SDS011;29555;45.350;5.578;2022-12-07T14:29:27;41.28;;;22.92;;
43891;SDS011;29555;45.350;5.578;2022-12-07T14:31:56;39.95;;;23.73;;
43891;SDS011;29555;45.350;5.578;2022-12-07T14:34:24;68.65;;;33.08;;
43891;SDS011;29555;45.350;5.578;2022-12-07T14:36:50;32.47;;;18.30;;
43891;SDS011;29555;45.350;5.578;2022-12-07T14:39:15;30.02;;;15.02;;
43891;SDS011;29555;45.350;5.578;2022-12-07T14:41:41;28.08;;;15.70;;
43891;SDS011;29555;45.350;5.578;2022-12-07T14:44:15;29.60;;;15.60;;
43891;SDS011;29555;45.350;5.578;2022-12-07T14:46:41;38.85;;;18.42;;
43891;SDS011;29555;45.350;5.578;2022-12-07T14:49:06;163.32;;;71.60;;
43891;SDS011;29555;45.350;5.578;2022-12-07T14:51:32;98.18;;;50.78;;
43891;SDS011;29555;45.350;5.578;2022-12-07T14:54:00;69.32;;;35.72;;
43891;SDS011;29555;45.350;5.578;2022-12-07T14:56:26;41.00;;;23.33;;
43891;SDS011;29555;45.350;5.578;2022-12-07T14:58:52;25.38;;;15.25;;
43891;SDS011;29555;45.350;5.578;2022-12-07T15:01:18;25.42;;;14.68;;
43891;SDS011;29555;45.350;5.578;2022-12-07T15:03:43;34.35;;;18.08;;
43891;SDS011;29555;45.350;5.578;2022-12-07T15:06:10;39.53;;;20.10;;
43891;SDS011;29555;45.350;5.578;2022-12-07T15:08:39;38.28;;;19.00;;
43891;SDS011;29555;45.350;5.578;2022-12-07T15:11:04;26.00;;;16.67;;
43891;SDS011;29555;45.350;5.578;2022-12-07T15:13:30;28.30;;;16.48;;
43891;SDS011;29555;45.350;5.578;2022-12-07T15:16:15;25.05;;;14.57;;
43891;SDS011;29555;45.350;5.578;2022-12-07T15:18:43;32.30;;;15.20;;
43891;SDS011;29555;45.350;5.578;2022-12-07T15:21:15;33.53;;;14.18;;
43891;SDS011;29555;45.350;5.578;2022-12-07T15:23:41;26.83;;;13.68;;
43891;SDS011;29555;45.350;5.578;2022-12-07T15:26:06;24.23;;;15.15;;
43891;SDS011;29555;45.350;5.578;2022-12-07T15:28:33;29.77;;;17.52;;
43891;SDS011;29555;45.350;5.578;2022-12-07T15:30:58;34.40;;;19.48;;
43891;SDS011;29555;45.350;5.578;2022-12-07T15:33:24;35.53;;;21.75;;
43891;SDS011;29555;45.350;5.578;2022-12-07T15:35:49;40.17;;;23.40;;
43891;SDS011;29555;45.350;5.578;2022-12-07T15:38:14;38.75;;;21.67;;
43891;SDS011;29555;45.350;5.578;2022-12-07T15:40:40;30.65;;;16.90;;
43891;SDS011;29555;45.350;5.578;2022-12-07T15:43:05;53.78;;;26.40;;
43891;SDS011;29555;45.350;5.578;2022-12-07T15:45:53;53.75;;;23.15;;
43891;SDS011;29555;45.350;5.578;2022-12-07T15:48:19;29.70;;;18.23;;
43891;SDS011;29555;45.350;5.578;2022-12-07T15:50:44;27.55;;;15.00;;
43891;SDS011;29555;45.350;5.578;2022-12-07T15:53:09;31.25;;;17.42;;
43891;SDS011;29555;45.350;5.578;2022-12-07T15:55:35;29.52;;;14.93;;
43891;SDS011;29555;45.350;5.578;2022-12-07T15:58:03;31.25;;;15.48;;
43891;SDS011;29555;45.350;5.578;2022-12-07T16:00:29;41.95;;;17.15;;
43891;SDS011;29555;45.350;5.578;2022-12-07T16:02:54;27.60;;;15.60;;
43891;SDS011;29555;45.350;5.578;2022-12-07T16:05:19;22.23;;;14.20;;
43891;SDS011;29555;45.350;5.578;2022-12-07T16:07:45;27.42;;;13.95;;
43891;SDS011;29555;45.350;5.578;2022-12-07T16:10:12;33.95;;;14.35;;
43891;SDS011;29555;45.350;5.578;2022-12-07T16:12:37;29.35;;;13.23;;
43891;SDS011;29555;45.350;5.578;2022-12-07T16:15:03;27.25;;;14.82;;
43891;SDS011;29555;45.350;5.578;2022-12-07T16:17:29;27.73;;;17.23;;
43891;SDS011;29555;45.350;5.578;2022-12-07T16:19:54;35.83;;;18.90;;
43891;SDS011;29555;45.350;5.578;2022-12-07T16:22:20;39.28;;;18.45;;
43891;SDS011;29555;45.350;5.578;2022-12-07T16:24:45;31.42;;;17.88;;
43891;SDS011;29555;45.350;5.578;2022-12-07T16:27:10;32.20;;;17.90;;
43891;SDS011;29555;45.350;5.578;2022-12-07T16:29:36;34.13;;;18.27;;